createdAt,value
2023-02-11T00:01:41.252Z,75.15
2023-02-11T00:04:11.471Z,76.07
2023-02-11T00:06:40.057Z,76.46
2023-02-11T00:09:10.600Z,75.02
2023-02-11T00:11:39.680Z,73.43
2023-02-11T00:14:08.902Z,73.73
2023-02-11T00:16:38.729Z,74.20
2023-02-11T00:19:07.580Z,74.83
2023-02-11T00:21:38.211Z,75.59
2023-02-11T00:24:07.311Z,76.04
2023-02-11T00:26:36.412Z,76.44
2023-02-11T00:29:06.338Z,76.03
2023-02-11T00:31:36.272Z,73.65
2023-02-11T00:34:08.088Z,72.86
2023-02-11T00:36:37.807Z,73.14
2023-02-11T00:39:07.106Z,74.18
2023-02-11T00:41:39.051Z,74.66
2023-02-11T00:44:07.843Z,75.32
2023-02-11T00:46:36.746Z,75.91
2023-02-11T00:49:06.673Z,76.68
2023-02-11T00:51:37.069Z,76.79
2023-02-11T00:54:06.170Z,74.44
2023-02-11T00:56:35.267Z,73.33
2023-02-11T00:59:04.049Z,73.57
2023-02-11T01:01:33.524Z,74.08
2023-02-11T01:04:03.263Z,74.78
2023-02-11T01:06:32.159Z,75.49
2023-02-11T01:09:01.053Z,76.27
2023-02-11T01:11:34.059Z,77.00
2023-02-11T01:14:02.927Z,77.24
2023-02-11T01:16:31.719Z,76.68
2023-02-11T01:19:01.015Z,74.31
2023-02-11T01:21:30.016Z,73.27
2023-02-11T01:23:59.306Z,73.06
2023-02-11T01:26:28.608Z,73.40
2023-02-11T01:29:01.290Z,73.69
2023-02-11T01:31:31.215Z,74.12
2023-02-11T01:34:02.444Z,74.75
2023-02-11T01:36:31.547Z,74.92
2023-02-11T01:39:02.176Z,74.93
2023-02-11T01:41:31.890Z,75.30
2023-02-11T01:44:28.244Z,75.42
2023-02-11T01:46:57.309Z,73.14
2023-02-11T01:49:35.569Z,72.26
2023-02-11T01:52:06.570Z,71.99
2023-02-11T01:54:59.825Z,72.00
2023-02-11T01:57:30.448Z,72.63
2023-02-11T02:00:21.899Z,72.90
2023-02-11T02:03:02.848Z,73.20
2023-02-11T02:06:01.439Z,73.55
2023-02-11T02:08:35.849Z,74.19
2023-02-11T02:11:07.713Z,74.28
2023-02-11T02:13:39.875Z,74.36
2023-02-11T02:16:12.837Z,72.64
2023-02-11T02:19:03.567Z,71.60
2023-02-11T02:21:54.472Z,71.15
2023-02-11T02:25:01.348Z,71.54
2023-02-11T02:27:49.495Z,71.93
2023-02-11T02:30:47.251Z,72.93
2023-02-11T02:33:28.536Z,73.33
2023-02-11T02:36:07.662Z,74.29
2023-02-11T02:38:43.663Z,74.79
2023-02-11T02:41:14.459Z,75.11
2023-02-11T02:43:48.464Z,74.38
2023-02-11T02:46:24.899Z,72.38
2023-02-11T02:48:54.849Z,71.16
2023-02-11T02:52:05.941Z,71.21
2023-02-11T02:55:12.812Z,71.98
2023-02-11T02:57:44.464Z,72.30
2023-02-11T03:00:16.531Z,72.81
2023-02-11T03:03:15.527Z,73.31
2023-02-11T03:05:50.732Z,73.35
2023-02-11T03:08:38.607Z,74.05
2023-02-11T03:11:07.187Z,73.71
2023-02-11T03:13:37.107Z,72.14
2023-02-11T03:16:12.588Z,71.47
2023-02-11T03:18:43.115Z,71.25
2023-02-11T03:21:11.862Z,71.25
2023-02-11T03:23:44.856Z,71.83
2023-02-11T03:26:25.687Z,72.32
2023-02-11T03:29:23.283Z,72.94
2023-02-11T03:32:25.856Z,73.34
2023-02-11T03:35:16.455Z,73.69
2023-02-11T03:37:57.733Z,74.09
2023-02-11T03:40:27.890Z,73.60
2023-02-11T03:43:01.865Z,72.20
2023-02-11T03:45:30.775Z,71.40
2023-02-11T03:48:06.711Z,71.58
2023-02-11T03:50:35.203Z,71.81
2023-02-11T03:53:04.295Z,72.00
2023-02-11T03:55:34.476Z,72.87
2023-02-11T03:58:03.199Z,74.06
2023-02-11T04:00:33.322Z,74.58
2023-02-11T04:03:02.288Z,75.01
2023-02-11T04:05:31.617Z,74.86
2023-02-11T04:08:00.324Z,73.69
2023-02-11T04:10:29.286Z,72.90
2023-02-11T04:12:58.382Z,73.26
2023-02-11T04:15:27.271Z,74.36
2023-02-11T04:17:55.971Z,75.52
2023-02-11T04:20:24.749Z,76.15
2023-02-11T04:22:53.756Z,77.23
2023-02-11T04:25:22.632Z,78.46
2023-02-11T04:27:52.649Z,78.03
2023-02-11T04:30:21.557Z,76.21
2023-02-11T04:32:50.322Z,75.55
2023-02-11T04:35:19.217Z,75.55
2023-02-11T04:37:48.218Z,75.93
2023-02-11T04:40:17.507Z,76.67
2023-02-11T04:42:47.114Z,77.32
2023-02-11T04:45:16.114Z,77.46
2023-02-11T04:47:44.797Z,78.11
2023-02-11T04:50:14.095Z,76.71
2023-02-11T04:52:43.192Z,75.79
2023-02-11T04:55:12.963Z,75.65
2023-02-11T04:57:41.714Z,75.75
2023-02-11T05:00:11.496Z,76.33
2023-02-11T05:02:40.299Z,77.33
2023-02-11T05:05:09.282Z,78.07
2023-02-11T05:07:38.162Z,78.53
2023-02-11T05:10:07.061Z,77.84
2023-02-11T05:12:36.577Z,76.03
2023-02-11T05:15:05.860Z,75.55
2023-02-11T05:17:35.055Z,75.68
2023-02-11T05:20:04.266Z,75.70
2023-02-11T05:22:34.269Z,76.28
2023-02-11T05:25:03.083Z,76.61
2023-02-11T05:27:31.945Z,76.95
2023-02-11T05:30:00.761Z,77.20
2023-02-11T05:32:29.832Z,75.51
2023-02-11T05:34:58.727Z,73.97
2023-02-11T05:37:27.760Z,74.19
2023-02-11T05:39:56.508Z,74.67
2023-02-11T05:42:25.187Z,74.88
2023-02-11T05:44:53.976Z,75.39
2023-02-11T05:47:22.863Z,76.08
2023-02-11T05:49:52.064Z,77.11
2023-02-11T05:52:21.779Z,76.26
2023-02-11T05:54:50.368Z,74.59
2023-02-11T05:57:20.584Z,73.55
2023-02-11T05:59:49.367Z,73.48
2023-02-11T06:02:21.507Z,73.59
2023-02-11T06:04:50.226Z,74.28
2023-02-11T06:07:23.823Z,74.82
2023-02-11T06:09:53.223Z,75.27
2023-02-11T06:12:22.016Z,75.78
2023-02-11T06:14:51.411Z,76.58
2023-02-11T06:17:20.443Z,75.63
2023-02-11T06:19:51.749Z,73.87
2023-02-11T06:22:20.750Z,73.52
2023-02-11T06:25:00.801Z,73.98
2023-02-11T06:27:33.375Z,74.63
2023-02-11T06:30:02.062Z,75.19
2023-02-11T06:32:46.557Z,75.85
2023-02-11T06:35:15.517Z,76.17
2023-02-11T06:37:47.467Z,75.82
2023-02-11T06:40:16.072Z,74.16
2023-02-11T06:42:44.953Z,73.68
2023-02-11T06:45:14.047Z,73.39
2023-02-11T06:47:42.929Z,73.73
2023-02-11T06:50:13.668Z,74.56
2023-02-11T06:52:43.586Z,74.70
2023-02-11T06:55:12.572Z,75.18
2023-02-11T06:57:42.494Z,75.51
2023-02-11T07:00:12.306Z,75.35
2023-02-11T07:02:41.050Z,73.69
2023-02-11T07:05:11.023Z,72.89
2023-02-11T07:07:41.317Z,73.26
2023-02-11T07:10:10.924Z,73.53
2023-02-11T07:12:40.845Z,74.07
2023-02-11T07:15:09.640Z,74.51
2023-02-11T07:17:38.627Z,75.61
2023-02-11T07:27:44.423Z,73.06
2023-02-11T07:30:14.234Z,73.80
2023-02-11T07:32:43.130Z,74.59
2023-02-11T07:35:12.128Z,74.25
2023-02-11T07:37:42.036Z,74.10
2023-02-11T07:40:12.247Z,72.27
2023-02-11T07:42:42.269Z,71.21
2023-02-11T07:45:11.772Z,70.90
2023-02-11T07:47:43.125Z,71.33
2023-02-11T07:50:14.683Z,72.07
2023-02-11T07:52:43.872Z,72.48
2023-02-11T07:55:12.704Z,73.47
2023-02-11T07:57:41.761Z,73.14
2023-02-11T08:00:11.326Z,73.58
2023-02-11T08:02:40.358Z,71.88
2023-02-11T08:05:09.138Z,71.25
2023-02-11T08:07:38.238Z,71.53
2023-02-11T08:10:07.864Z,71.95
2023-02-11T08:13:52.527Z,72.89
2023-02-11T08:16:26.228Z,73.29
2023-02-11T08:18:57.914Z,73.96
2023-02-11T08:21:26.857Z,75.03
2023-02-11T08:23:55.744Z,74.15
2023-02-11T08:26:26.380Z,72.55
2023-02-11T08:28:56.002Z,72.55
2023-02-11T08:31:30.120Z,72.61
2023-02-11T08:33:59.088Z,73.07
2023-02-11T08:36:33.116Z,74.03
2023-02-11T08:39:18.222Z,74.37
2023-02-11T08:41:49.899Z,74.96
2023-02-11T08:44:19.871Z,74.03
2023-02-11T08:46:48.646Z,72.51
2023-02-11T08:49:18.161Z,71.72
2023-02-11T08:51:46.822Z,71.83
2023-02-11T08:54:15.931Z,71.48
2023-02-11T08:56:44.719Z,71.85
2023-02-11T08:59:15.687Z,72.30
2023-02-11T09:01:44.830Z,72.64
2023-02-11T09:04:14.036Z,72.45
2023-02-11T09:06:43.443Z,72.01
2023-02-11T09:09:13.966Z,70.23
2023-02-11T09:11:43.266Z,69.44
2023-02-11T09:14:17.276Z,69.21
2023-02-11T09:16:46.521Z,69.17
2023-02-11T09:19:19.257Z,69.50
2023-02-11T09:21:48.145Z,69.97
2023-02-11T09:24:16.837Z,70.66
2023-02-11T09:26:45.720Z,70.04
2023-02-11T09:29:14.533Z,70.25
2023-02-11T09:31:43.520Z,70.16
2023-02-11T09:34:12.918Z,69.70
2023-02-11T09:36:42.006Z,67.84
2023-02-11T09:39:18.684Z,66.68
2023-02-11T09:42:35.178Z,66.39
2023-02-11T09:45:04.919Z,66.60
2023-02-11T09:47:36.486Z,66.74
2023-02-11T09:50:08.174Z,66.93
2023-02-11T09:53:20.918Z,67.45
2023-02-11T09:55:55.961Z,66.93
2023-02-11T09:58:28.529Z,67.14
2023-02-11T10:01:09.240Z,67.44
2023-02-11T10:03:59.452Z,67.11
2023-02-11T10:06:28.193Z,66.69
2023-02-11T10:09:25.601Z,66.01
2023-02-11T10:12:16.250Z,65.86
2023-02-11T10:15:01.813Z,65.91
2023-02-11T10:17:57.757Z,65.36
2023-02-11T10:20:31.466Z,64.85
2023-02-11T10:23:02.009Z,64.34
2023-02-11T10:25:45.498Z,64.50
2023-02-11T10:28:18.411Z,64.31
2023-02-11T10:30:50.621Z,64.50
2023-02-11T10:33:26.020Z,63.63
2023-02-11T10:35:54.492Z,63.62
2023-02-11T10:38:23.178Z,62.97
2023-02-11T10:40:52.300Z,62.99
2023-02-11T10:43:24.427Z,63.45
2023-02-11T10:45:55.206Z,63.15
2023-02-11T10:48:56.645Z,62.88
2023-02-11T10:51:30.224Z,63.63
2023-02-11T10:54:05.070Z,63.08
2023-02-11T10:56:35.910Z,62.27
2023-02-11T10:59:28.032Z,62.40
2023-02-11T11:01:59.456Z,62.10
2023-02-11T11:04:32.569Z,62.20
2023-02-11T11:07:31.454Z,62.00
2023-02-11T11:10:08.759Z,61.31
2023-02-11T11:12:46.751Z,60.91
2023-02-11T11:15:19.140Z,60.22
2023-02-11T11:17:51.526Z,59.85
2023-02-11T11:20:27.766Z,60.36
2023-02-11T11:23:20.079Z,60.54
2023-02-11T11:26:05.886Z,60.50
2023-02-11T11:28:40.268Z,59.23
2023-02-11T11:31:39.092Z,59.49
2023-02-11T11:34:39.005Z,59.22
2023-02-11T11:37:12.808Z,60.70
2023-02-11T11:39:41.806Z,59.51
2023-02-11T11:42:27.586Z,58.13
2023-02-11T11:45:23.509Z,58.57
2023-02-11T11:48:21.517Z,58.38
2023-02-11T11:50:53.015Z,57.48
2023-02-11T11:53:31.647Z,58.13
2023-02-11T11:56:23.682Z,57.08
2023-02-11T11:58:53.496Z,57.60
2023-02-11T12:01:38.045Z,58.04
2023-02-11T12:04:58.246Z,58.50
2023-02-11T12:07:32.263Z,58.29
2023-02-11T12:10:57.058Z,58.58
2023-02-11T12:13:52.988Z,58.69
2023-02-11T12:16:21.804Z,58.92
2023-02-11T12:18:55.162Z,58.96
2023-02-11T12:21:54.699Z,58.82
2023-02-11T12:24:28.070Z,58.70
2023-02-11T12:27:12.110Z,59.00
2023-02-11T12:30:19.202Z,58.73
2023-02-11T12:33:06.828Z,58.96
2023-02-11T12:35:41.462Z,59.28
2023-02-11T12:38:29.421Z,59.44
2023-02-11T12:41:41.704Z,59.12
2023-02-11T12:44:17.262Z,59.35
2023-02-11T12:47:16.651Z,59.74
2023-02-11T12:57:28.300Z,60.00
2023-02-11T13:00:22.586Z,59.73
2023-02-11T13:03:00.887Z,59.91
2023-02-11T13:05:37.975Z,60.67
2023-02-11T13:08:31.339Z,61.71
2023-02-11T13:11:08.830Z,60.65
2023-02-11T13:13:43.358Z,60.35
2023-02-11T13:16:26.313Z,60.85
2023-02-11T13:19:14.134Z,60.40
2023-02-11T13:21:56.539Z,61.09
2023-02-11T13:24:40.460Z,61.19
2023-02-11T13:27:34.638Z,60.98
2023-02-11T13:30:30.808Z,61.10
2023-02-11T13:33:02.739Z,61.61
2023-02-11T13:35:33.359Z,61.37
2023-02-11T13:38:21.551Z,61.76
2023-02-11T13:41:22.746Z,61.56
2023-02-11T13:44:22.914Z,61.94
2023-02-11T13:47:00.416Z,61.94
2023-02-11T13:49:40.470Z,62.06
2023-02-11T13:52:27.630Z,62.23
2023-02-11T13:54:59.441Z,61.35
2023-02-11T13:57:33.697Z,62.25
2023-02-11T14:00:10.800Z,62.20
2023-02-11T14:02:58.833Z,62.09
2023-02-11T14:05:48.918Z,62.17
2023-02-11T14:08:42.589Z,62.29
2023-02-11T14:11:33.641Z,61.85
2023-02-11T14:14:22.252Z,62.04
2023-02-11T14:17:00.518Z,62.86
2023-02-11T14:19:38.872Z,62.72
2023-02-11T14:22:10.736Z,63.07
2023-02-11T14:24:46.384Z,62.61
2023-02-11T14:27:30.023Z,62.66
2023-02-11T14:30:16.836Z,62.81
2023-02-11T14:33:12.245Z,62.54
2023-02-11T14:35:52.205Z,63.48
2023-02-11T14:38:41.361Z,63.39
2023-02-11T14:41:29.324Z,63.31
2023-02-11T14:44:00.036Z,63.42
2023-02-11T14:46:31.016Z,63.66
2023-02-11T14:49:02.009Z,63.68
2023-02-11T14:51:40.656Z,64.35
2023-02-11T14:54:21.618Z,64.11
2023-02-11T14:57:20.096Z,63.82
2023-02-11T15:00:05.373Z,63.79
2023-02-11T15:02:36.663Z,63.72
2023-02-11T15:05:19.394Z,64.04
2023-02-11T15:07:50.530Z,64.21
2023-02-11T15:10:41.067Z,64.30
2023-02-11T15:13:10.766Z,64.07
2023-02-11T15:15:41.106Z,64.58
2023-02-11T15:18:21.655Z,65.03
2023-02-11T15:20:51.310Z,64.96
2023-02-11T15:23:24.071Z,65.57
2023-02-11T15:25:56.318Z,65.88
2023-02-11T15:28:29.146Z,66.12
2023-02-11T15:31:18.549Z,66.01
2023-02-11T15:33:47.361Z,66.46
2023-02-11T15:36:16.349Z,66.00
2023-02-11T15:38:44.976Z,66.31
2023-02-11T15:41:36.707Z,65.86
2023-02-11T15:44:05.550Z,64.35
2023-02-11T15:46:38.740Z,63.02
2023-02-11T15:49:16.348Z,62.55
2023-02-11T15:51:45.937Z,62.60
2023-02-11T15:54:19.302Z,63.23
2023-02-11T15:56:51.978Z,63.56
2023-02-11T15:59:28.095Z,64.29
2023-02-11T16:01:58.628Z,64.46
2023-02-11T16:04:27.346Z,65.09
2023-02-11T16:06:56.490Z,65.81
2023-02-11T16:09:34.001Z,66.24
2023-02-11T16:12:04.959Z,66.09
2023-02-11T16:14:39.639Z,66.44
2023-02-11T16:17:08.977Z,66.63
2023-02-11T16:19:42.657Z,66.41
2023-02-11T16:22:12.529Z,66.57
2023-02-11T16:24:41.248Z,67.55
2023-02-11T16:27:24.925Z,67.16
2023-02-11T16:29:53.771Z,66.43
2023-02-11T16:32:24.913Z,64.53
2023-02-11T16:34:56.158Z,64.34
2023-02-11T16:37:25.681Z,64.32
2023-02-11T16:39:55.589Z,65.45
2023-02-11T16:42:25.204Z,66.16
2023-02-11T16:44:54.402Z,67.30
2023-02-11T16:47:27.590Z,67.73
2023-02-11T16:49:56.573Z,67.96
2023-02-11T16:52:25.357Z,68.14
2023-02-11T16:54:55.373Z,68.30
2023-02-11T16:57:26.926Z,68.94
2023-02-11T16:59:56.748Z,70.09
2023-02-11T17:02:31.929Z,69.06
2023-02-11T17:05:17.180Z,66.99
2023-02-11T17:07:47.260Z,66.53
2023-02-11T17:10:21.654Z,66.94
2023-02-11T17:12:51.797Z,67.66
2023-02-11T17:15:20.804Z,68.58
2023-02-11T17:17:51.329Z,69.95
2023-02-11T17:20:21.131Z,70.43
2023-02-11T17:22:50.332Z,71.06
2023-02-11T17:25:18.916Z,71.80
2023-02-11T17:27:47.698Z,70.83
2023-02-11T17:30:17.450Z,70.06
2023-02-11T17:32:47.732Z,70.01
2023-02-11T17:35:16.728Z,70.86
2023-02-11T17:37:45.613Z,71.10
2023-02-11T17:40:15.328Z,72.20
2023-02-11T17:42:44.011Z,72.61
2023-02-11T17:45:14.227Z,73.43
2023-02-11T17:47:42.710Z,72.47
2023-02-11T17:50:11.922Z,71.44
2023-02-11T17:52:43.060Z,71.04
2023-02-11T17:55:11.948Z,71.71
2023-02-11T17:57:40.551Z,72.89
2023-02-11T18:00:10.552Z,73.90
2023-02-11T18:02:41.790Z,74.59
2023-02-11T18:05:11.398Z,74.97
2023-02-11T18:07:40.188Z,74.24
2023-02-11T18:10:10.614Z,72.91
2023-02-11T18:12:39.303Z,73.69
2023-02-11T18:15:09.025Z,74.58
2023-02-11T18:17:38.202Z,75.66
2023-02-11T18:20:08.072Z,76.99
2023-02-11T18:22:41.308Z,78.35
2023-02-11T18:25:11.944Z,78.62
2023-02-11T18:27:41.356Z,77.42
2023-02-11T18:30:29.072Z,76.84
2023-02-11T18:32:58.069Z,78.21
2023-02-11T18:35:27.065Z,78.44
2023-02-11T18:37:56.669Z,79.06
2023-02-11T18:40:25.559Z,79.46
2023-02-11T18:42:57.321Z,78.47
2023-02-11T18:45:29.399Z,77.75
2023-02-11T18:48:02.065Z,77.77
2023-02-11T18:50:31.373Z,78.41
2023-02-11T18:53:00.056Z,78.96
2023-02-11T18:55:28.836Z,79.59
2023-02-11T18:57:58.154Z,78.39
2023-02-11T19:00:26.925Z,77.70
2023-02-11T19:02:55.419Z,77.19
2023-02-11T19:05:29.011Z,77.98
2023-02-11T19:07:57.490Z,78.71
2023-02-11T19:10:27.297Z,79.36
2023-02-11T19:12:59.069Z,78.38
2023-02-11T19:15:33.165Z,77.19
2023-02-11T19:18:02.373Z,77.20
2023-02-11T19:20:33.813Z,77.63
2023-02-11T19:23:02.402Z,78.59
2023-02-11T19:25:31.287Z,79.02
2023-02-11T19:28:00.818Z,77.86
2023-02-11T19:30:30.109Z,76.95
2023-02-11T19:32:59.292Z,76.87
2023-02-11T19:35:28.590Z,77.62
2023-02-11T19:37:57.490Z,78.73
2023-02-11T19:40:26.679Z,78.89
2023-02-11T19:42:55.578Z,77.73
2023-02-11T19:45:24.666Z,76.99
2023-02-11T19:47:57.246Z,76.94
2023-02-11T19:50:26.035Z,77.59
2023-02-11T19:52:55.856Z,78.73
2023-02-11T19:55:25.345Z,78.88
2023-02-11T19:57:54.138Z,77.45
2023-02-11T20:00:23.128Z,76.96
2023-02-11T20:02:58.170Z,77.79
2023-02-11T20:05:27.361Z,78.73
2023-02-11T20:07:56.154Z,79.93
2023-02-11T20:10:25.408Z,80.35
2023-02-11T20:12:54.638Z,79.67
2023-02-11T20:15:23.533Z,79.91
2023-02-11T20:17:52.530Z,81.34
2023-02-11T20:20:21.411Z,82.54
2023-02-11T20:22:51.436Z,82.63
2023-02-11T20:25:22.776Z,81.72
2023-02-11T20:27:51.711Z,81.31
2023-02-11T20:30:22.147Z,82.05
2023-02-11T20:32:50.774Z,82.88
2023-02-11T20:35:20.179Z,83.22
2023-02-11T20:37:49.076Z,82.27
2023-02-11T20:40:18.011Z,83.15
2023-02-11T20:42:46.953Z,83.85
2023-02-11T20:45:16.045Z,84.95
2023-02-11T20:47:45.404Z,85.35
2023-02-11T20:50:14.242Z,84.66
2023-02-11T20:52:43.439Z,84.84
2023-02-11T20:55:12.426Z,85.48
2023-02-11T20:57:41.731Z,86.67
2023-02-11T21:00:13.507Z,85.98
2023-02-11T21:02:42.792Z,85.05
2023-02-11T21:05:12.505Z,85.59
2023-02-11T21:07:41.595Z,86.12
2023-02-11T21:10:11.034Z,86.82
2023-02-11T21:12:39.683Z,85.76
2023-02-11T21:15:10.872Z,85.01
2023-02-11T21:17:43.913Z,85.30
2023-02-11T21:20:12.811Z,86.30
2023-02-11T21:22:41.794Z,86.72
2023-02-11T21:25:12.225Z,85.66
2023-02-11T21:27:47.153Z,85.49
2023-02-11T21:30:16.146Z,85.84
2023-02-11T21:32:44.939Z,86.43
2023-02-11T21:35:13.720Z,86.61
2023-02-11T21:37:42.617Z,86.14
2023-02-11T21:40:12.299Z,86.62
2023-02-11T21:42:41.538Z,87.28
2023-02-11T21:45:10.627Z,87.53
2023-02-11T21:47:39.405Z,86.57
2023-02-11T21:50:09.317Z,86.60
2023-02-11T21:52:37.913Z,87.39
2023-02-11T21:55:07.506Z,88.14
2023-02-11T21:57:36.604Z,87.46
2023-02-11T22:00:06.461Z,86.46
2023-02-11T22:02:35.516Z,86.52
2023-02-11T22:05:04.571Z,87.28
2023-02-11T22:07:36.164Z,88.26
2023-02-11T22:10:05.114Z,87.22
2023-02-11T22:12:34.248Z,86.53
2023-02-11T22:15:03.387Z,86.97
2023-02-11T22:17:33.228Z,87.84
2023-02-11T22:20:01.970Z,88.48
2023-02-11T22:22:31.862Z,87.51
2023-02-11T22:25:02.283Z,87.50
2023-02-11T22:27:31.083Z,88.19
2023-02-11T22:29:59.852Z,88.84
2023-02-11T22:32:28.743Z,88.67
2023-02-11T22:34:57.947Z,87.48
2023-02-11T22:37:28.774Z,87.20
2023-02-11T22:39:57.567Z,88.04
2023-02-11T22:42:27.065Z,89.06
2023-02-11T22:44:55.963Z,88.52
2023-02-11T22:47:24.743Z,88.19
2023-02-11T22:49:53.633Z,88.35
2023-02-11T22:52:24.165Z,89.47
2023-02-11T22:54:52.955Z,89.50
2023-02-11T22:57:22.869Z,88.76
2023-02-11T22:59:51.650Z,89.12
2023-02-11T23:02:20.666Z,89.61
2023-02-11T23:04:50.056Z,90.76
2023-02-11T23:07:18.847Z,89.86
2023-02-11T23:09:47.622Z,90.10
2023-02-11T23:12:16.308Z,90.92
2023-02-11T23:14:46.017Z,91.72
2023-02-11T23:17:15.016Z,91.80
2023-02-11T23:19:45.342Z,90.90
2023-02-11T23:22:13.916Z,90.54
2023-02-11T23:24:42.806Z,90.52
2023-02-11T23:27:11.506Z,91.93
2023-02-11T23:29:40.211Z,90.95
2023-02-11T23:32:09.103Z,90.09
2023-02-11T23:34:37.967Z,90.16
2023-02-11T23:37:06.951Z,90.72
2023-02-11T23:39:37.583Z,91.44
2023-02-11T23:42:06.173Z,90.56
2023-02-11T23:44:38.643Z,90.04
2023-02-11T23:47:07.641Z,89.81
2023-02-11T23:49:36.430Z,90.75
2023-02-11T23:52:05.431Z,91.12
2023-02-11T23:54:34.208Z,90.71
2023-02-11T23:57:03.105Z,90.40
2023-02-11T23:59:32.191Z,90.38
